createdAt,value
2019-05-15T00:00:58.949Z,95.30
2019-05-15T00:03:20.343Z,95.50
2019-05-15T00:05:41.536Z,96.30
2019-05-15T00:08:03.466Z,96.80
2019-05-15T00:10:24.750Z,97.30
2019-05-15T00:12:48.459Z,98.20
2019-05-15T00:15:09.664Z,99.20
2019-05-15T00:17:31.643Z,99.90
2019-05-15T00:19:52.840Z,99.90
2019-05-15T00:22:14.639Z,99.90
2019-05-15T00:24:38.004Z,99.90
2019-05-15T00:26:59.047Z,99.90
2019-05-15T00:29:20.333Z,99.90
2019-05-15T00:31:41.634Z,99.90
2019-05-15T00:34:03.246Z,99.90
2019-05-15T00:36:24.526Z,99.90
2019-05-15T00:38:45.718Z,99.90
2019-05-15T00:41:09.147Z,99.90
2019-05-15T00:43:29.993Z,99.90
2019-05-15T00:45:51.549Z,99.90
2019-05-15T00:48:12.832Z,99.90
2019-05-15T00:50:34.012Z,99.90
2019-05-15T00:52:55.208Z,99.90
2019-05-15T00:55:19.135Z,99.90
2019-05-15T00:57:40.534Z,99.90
2019-05-15T01:00:03.710Z,99.90
2019-05-15T01:02:26.017Z,99.90
2019-05-15T01:04:48.030Z,99.90
2019-05-15T01:07:09.357Z,99.90
2019-05-15T01:09:31.628Z,99.90
2019-05-15T01:11:52.831Z,99.90
2019-05-15T01:14:14.353Z,99.90
2019-05-15T01:16:38.111Z,99.90
2019-05-15T01:18:58.770Z,99.90
2019-05-15T01:21:20.147Z,99.90
2019-05-15T01:23:41.344Z,99.90
2019-05-15T01:26:02.669Z,99.90
2019-05-15T01:28:23.883Z,99.90
2019-05-15T01:30:45.072Z,99.90
2019-05-15T01:33:08.389Z,99.90
2019-05-15T01:35:29.633Z,99.90
2019-05-15T01:37:50.903Z,99.90
2019-05-15T01:40:12.292Z,99.90
2019-05-15T01:42:33.485Z,99.90
2019-05-15T01:44:54.657Z,99.90
2019-05-15T01:47:15.955Z,99.90
2019-05-15T01:49:38.405Z,99.90
2019-05-15T01:52:00.040Z,99.90
2019-05-15T01:54:21.253Z,99.90
2019-05-15T01:56:42.536Z,99.90
2019-05-15T01:59:03.828Z,99.90
2019-05-15T02:01:25.088Z,99.90
2019-05-15T02:03:46.291Z,99.90
2019-05-15T02:06:08.210Z,99.90
2019-05-15T02:08:30.041Z,99.90
2019-05-15T02:10:51.220Z,99.90
2019-05-15T02:13:12.658Z,99.90
2019-05-15T02:15:33.836Z,99.90
2019-05-15T02:17:55.647Z,99.90
2019-05-15T02:20:18.764Z,99.90
2019-05-15T02:22:42.511Z,99.90
2019-05-15T02:25:04.524Z,99.90
2019-05-15T02:27:25.929Z,99.90
2019-05-15T02:29:49.126Z,99.90
2019-05-15T02:32:10.426Z,99.90
2019-05-15T02:34:31.911Z,99.90
2019-05-15T02:36:53.105Z,99.90
2019-05-15T02:39:14.294Z,99.90
2019-05-15T02:41:35.486Z,99.90
2019-05-15T02:43:59.177Z,99.90
2019-05-15T02:46:20.494Z,99.90
2019-05-15T02:48:41.797Z,99.90
2019-05-15T02:51:03.071Z,99.90
2019-05-15T02:53:24.361Z,99.90
2019-05-15T02:55:45.548Z,99.90
2019-05-15T02:58:09.650Z,99.90
2019-05-15T03:00:42.452Z,99.90
2019-05-15T03:02:52.903Z,99.90
2019-05-15T03:05:40.647Z,99.90
2019-05-15T03:08:00.420Z,99.90
2019-05-15T03:10:21.647Z,99.90
2019-05-15T03:12:43.225Z,99.90
2019-05-15T03:15:05.022Z,99.90
2019-05-15T03:17:29.407Z,99.90
2019-05-15T03:19:49.943Z,99.90
2019-05-15T03:22:11.653Z,99.90
2019-05-15T03:24:33.198Z,99.90
2019-05-15T03:26:54.599Z,99.90
2019-05-15T03:29:15.893Z,99.90
2019-05-15T03:31:57.681Z,99.90
2019-05-15T03:34:02.673Z,99.90
2019-05-15T03:36:24.601Z,99.90
2019-05-15T03:38:49.598Z,99.90
2019-05-15T03:41:10.223Z,99.90
2019-05-15T03:43:32.305Z,99.90
2019-05-15T03:45:53.589Z,99.90
2019-05-15T03:48:14.936Z,99.90
2019-05-15T03:50:40.157Z,99.90
2019-05-15T03:53:00.549Z,99.90
2019-05-15T03:55:22.909Z,99.90
2019-05-15T03:57:44.201Z,99.90
2019-05-15T04:00:09.364Z,99.90
2019-05-15T04:02:29.548Z,99.90
2019-05-15T04:04:50.838Z,99.90
2019-05-15T04:07:12.488Z,99.90
2019-05-15T04:09:33.788Z,99.90
2019-05-15T04:11:56.129Z,99.90
2019-05-15T04:14:19.401Z,99.90
2019-05-15T04:16:40.631Z,99.90
2019-05-15T04:19:01.814Z,99.90
2019-05-15T04:21:23.126Z,99.90
2019-05-15T04:23:44.727Z,99.90
2019-05-15T04:26:09.283Z,99.90
2019-05-15T04:28:30.495Z,99.90
2019-05-15T04:30:51.796Z,99.90
2019-05-15T04:33:13.378Z,99.90
2019-05-15T04:35:34.637Z,99.90
2019-05-15T04:37:56.009Z,99.90
2019-05-15T04:40:19.388Z,99.90
2019-05-15T04:42:40.816Z,99.90
2019-05-15T04:45:05.573Z,99.90
2019-05-15T04:47:29.934Z,99.90
2019-05-15T04:49:50.549Z,99.90
2019-05-15T04:52:11.966Z,99.90
2019-05-15T04:54:33.237Z,99.90
2019-05-15T04:56:54.444Z,99.90
2019-05-15T04:59:19.267Z,99.90
2019-05-15T05:01:40.143Z,99.90
2019-05-15T05:04:01.813Z,99.90
2019-05-15T05:06:23.331Z,99.90
2019-05-15T05:08:44.844Z,99.90
2019-05-15T05:11:09.442Z,99.90
2019-05-15T05:13:29.637Z,99.90
2019-05-15T05:15:50.898Z,99.90
2019-05-15T05:18:12.097Z,99.90
2019-05-15T05:20:33.295Z,99.90
2019-05-15T05:22:54.481Z,99.90
2019-05-15T05:25:15.655Z,99.90
2019-05-15T05:27:38.402Z,99.90
2019-05-15T05:30:01.869Z,99.90
2019-05-15T05:32:32.042Z,99.90
2019-05-15T05:34:48.266Z,99.90
2019-05-15T05:37:09.469Z,99.90
2019-05-15T05:39:30.866Z,99.90
2019-05-15T05:41:52.093Z,99.90
2019-05-15T05:44:13.278Z,99.90
2019-05-15T05:46:34.496Z,99.90
2019-05-15T05:48:57.938Z,99.90
2019-05-15T05:51:19.210Z,99.90
2019-05-15T05:53:40.561Z,99.90
2019-05-15T05:56:01.757Z,99.90
2019-05-15T05:58:22.963Z,99.90
2019-05-15T06:00:45.749Z,99.90
2019-05-15T06:03:08.669Z,99.90
2019-05-15T06:05:30.212Z,99.90
2019-05-15T06:07:51.416Z,99.90
2019-05-15T06:10:12.799Z,99.90
2019-05-15T06:12:34.436Z,99.60
2019-05-15T06:14:57.955Z,99.30
2019-05-15T06:17:19.169Z,99.20
2019-05-15T06:19:40.523Z,99.30
2019-05-15T06:22:02.151Z,98.80
2019-05-15T06:24:23.375Z,98.80
2019-05-15T06:26:44.569Z,97.70
2019-05-15T06:29:05.831Z,98.20
2019-05-15T06:31:28.112Z,98.10
2019-05-15T06:33:49.418Z,97.40
2019-05-15T06:36:10.607Z,97.00
2019-05-15T06:38:33.159Z,94.50
2019-05-15T06:40:54.364Z,92.30
2019-05-15T06:43:18.815Z,89.20
2019-05-15T06:45:39.286Z,87.10
2019-05-15T06:48:01.602Z,86.40
2019-05-15T06:50:32.029Z,83.00
2019-05-15T06:52:53.253Z,81.70
2019-05-15T06:55:15.420Z,84.40
2019-05-15T06:57:39.372Z,80.40
2019-05-15T06:59:59.812Z,82.50
2019-05-15T07:02:21.009Z,79.20
2019-05-15T07:04:42.260Z,78.70
2019-05-15T07:07:03.470Z,77.60
2019-05-15T07:09:24.660Z,77.80
2019-05-15T07:11:48.060Z,77.30
2019-05-15T07:14:09.109Z,76.80
2019-05-15T07:16:30.492Z,76.90
2019-05-15T07:18:51.762Z,75.30
2019-05-15T07:21:12.937Z,74.50
2019-05-15T07:23:34.133Z,73.20
2019-05-15T07:25:55.328Z,71.70
2019-05-15T07:28:18.164Z,72.40
2019-05-15T07:30:41.191Z,72.30
2019-05-15T07:33:02.737Z,70.10
2019-05-15T07:35:24.370Z,68.50
2019-05-15T07:37:47.753Z,69.70
2019-05-15T07:40:10.414Z,67.60
2019-05-15T07:42:31.936Z,65.70
2019-05-15T07:44:53.117Z,63.20
2019-05-15T07:47:14.309Z,63.70
2019-05-15T07:49:35.520Z,65.50
2019-05-15T07:51:59.017Z,64.00
2019-05-15T07:54:19.800Z,63.00
2019-05-15T07:56:40.992Z,61.20
2019-05-15T07:59:02.418Z,59.20
2019-05-15T08:01:23.877Z,60.60
2019-05-15T08:03:58.523Z,59.70
2019-05-15T08:06:08.806Z,60.40
2019-05-15T08:08:30.657Z,57.90
2019-05-15T08:10:51.847Z,58.90
2019-05-15T08:13:13.024Z,58.10
2019-05-15T08:15:34.253Z,59.10
2019-05-15T08:18:05.571Z,54.70
2019-05-15T08:20:20.548Z,53.50
2019-05-15T08:22:41.889Z,52.50
2019-05-15T08:25:07.596Z,52.30
2019-05-15T08:27:29.969Z,52.50
2019-05-15T08:29:51.499Z,52.30
2019-05-15T08:32:12.795Z,51.20
2019-05-15T08:34:35.170Z,51.90
2019-05-15T08:36:59.033Z,51.10
2019-05-15T08:39:20.556Z,50.50
2019-05-15T08:41:41.724Z,50.00
2019-05-15T08:44:03.125Z,50.30
2019-05-15T08:46:24.314Z,49.20
2019-05-15T08:48:45.499Z,48.10
2019-05-15T08:51:08.682Z,50.20
2019-05-15T08:53:29.797Z,48.70
2019-05-15T08:56:04.346Z,48.30
2019-05-15T08:58:25.654Z,46.70
2019-05-15T09:00:51.784Z,46.70
2019-05-15T09:03:09.973Z,46.60
2019-05-15T09:05:31.170Z,45.70
2019-05-15T09:07:52.603Z,44.20
2019-05-15T09:10:14.101Z,44.30
2019-05-15T09:12:35.272Z,43.70
2019-05-15T09:14:58.188Z,44.60
2019-05-15T09:17:19.579Z,45.70
2019-05-15T09:19:41.047Z,46.20
2019-05-15T09:22:02.245Z,44.70
2019-05-15T09:24:23.552Z,45.10
2019-05-15T09:26:44.758Z,44.70
2019-05-15T09:29:08.805Z,44.50
2019-05-15T09:31:29.145Z,44.50
2019-05-15T09:33:50.331Z,42.60
2019-05-15T09:36:11.617Z,41.80
2019-05-15T09:38:32.801Z,42.30
2019-05-15T09:40:54.000Z,41.40
2019-05-15T09:43:15.206Z,42.90
2019-05-15T09:45:38.130Z,43.40
2019-05-15T09:47:59.630Z,41.60
2019-05-15T09:50:21.002Z,41.60
2019-05-15T09:52:42.182Z,40.50
2019-05-15T09:55:08.610Z,42.00
2019-05-15T09:57:30.341Z,42.70
2019-05-15T09:59:51.757Z,41.30
2019-05-15T10:02:13.046Z,40.20
2019-05-15T10:04:34.244Z,41.40
2019-05-15T10:06:55.588Z,38.70
2019-05-15T10:09:18.968Z,40.00
2019-05-15T10:11:40.102Z,40.40
2019-05-15T10:14:03.644Z,40.30
2019-05-15T10:16:24.943Z,40.70
2019-05-15T10:18:50.824Z,40.10
2019-05-15T10:21:09.365Z,41.20
2019-05-15T10:23:30.640Z,40.30
2019-05-15T10:25:51.968Z,39.40
2019-05-15T10:28:15.231Z,40.40
2019-05-15T10:30:39.241Z,41.40
2019-05-15T10:32:59.449Z,40.40
2019-05-15T10:35:28.323Z,39.40
2019-05-15T10:37:43.869Z,39.80
2019-05-15T10:40:09.107Z,40.30
2019-05-15T10:42:31.637Z,39.40
2019-05-15T10:44:52.924Z,39.50
2019-05-15T10:47:17.954Z,39.20
2019-05-15T10:49:39.236Z,39.00
2019-05-15T10:52:00.447Z,38.90
2019-05-15T10:54:23.536Z,39.40
2019-05-15T10:56:44.756Z,37.90
2019-05-15T10:59:08.322Z,37.80
2019-05-15T11:01:29.485Z,37.70
2019-05-15T11:03:50.748Z,37.00
2019-05-15T11:06:12.124Z,36.20
2019-05-15T11:08:33.319Z,37.00
2019-05-15T11:10:54.507Z,36.20
2019-05-15T11:13:18.389Z,36.50
2019-05-15T11:15:42.337Z,36.70
2019-05-15T11:18:01.900Z,37.40
2019-05-15T11:20:23.090Z,36.50
2019-05-15T11:22:44.368Z,37.00
2019-05-15T11:25:09.862Z,35.60
2019-05-15T11:27:32.710Z,35.90
2019-05-15T11:29:54.027Z,35.40
2019-05-15T11:32:15.229Z,36.50
2019-05-15T11:34:58.281Z,35.20
2019-05-15T11:37:19.437Z,34.60
2019-05-15T11:39:46.266Z,34.20
2019-05-15T11:42:03.745Z,33.80
2019-05-15T11:44:24.942Z,34.80
2019-05-15T11:46:46.150Z,35.40
2019-05-15T11:49:09.407Z,34.90
2019-05-15T11:51:30.569Z,34.00
2019-05-15T11:54:11.872Z,33.50
2019-05-15T11:56:33.158Z,33.00
2019-05-15T11:58:54.457Z,33.20
2019-05-15T12:01:18.659Z,33.60
2019-05-15T12:03:38.907Z,34.50
2019-05-15T12:06:14.870Z,33.60
2019-05-15T12:08:23.517Z,33.80
2019-05-15T12:10:44.786Z,33.00
2019-05-15T12:13:06.001Z,32.90
2019-05-15T12:15:27.974Z,32.60
2019-05-15T12:17:49.325Z,32.10
2019-05-15T12:20:11.123Z,33.30
2019-05-15T12:22:32.597Z,32.80
2019-05-15T12:24:54.092Z,33.00
2019-05-15T12:27:18.413Z,32.10
2019-05-15T12:29:39.802Z,33.70
2019-05-15T12:32:21.833Z,32.00
2019-05-15T12:34:25.755Z,34.00
2019-05-15T12:36:53.147Z,32.80
2019-05-15T12:39:13.561Z,33.40
2019-05-15T13:00:41.485Z,32.70
2019-05-15T13:03:02.768Z,31.80
2019-05-15T13:05:23.959Z,32.10
2019-05-15T13:07:45.160Z,31.60
2019-05-15T13:10:08.661Z,32.80
2019-05-15T13:12:30.312Z,33.40
2019-05-15T13:14:51.752Z,33.70
2019-05-15T13:17:13.205Z,32.80
2019-05-15T13:19:34.386Z,33.10
2019-05-15T13:21:57.828Z,33.90
2019-05-15T13:24:19.535Z,33.80
2019-05-15T13:26:40.909Z,32.50
2019-05-15T13:29:02.450Z,32.50
2019-05-15T13:31:23.786Z,30.90
2019-05-15T13:33:44.981Z,31.30
2019-05-15T13:36:08.713Z,31.80
2019-05-15T13:38:29.340Z,32.70
2019-05-15T13:40:50.757Z,32.00
2019-05-15T13:43:12.044Z,31.30
2019-05-15T13:45:33.280Z,31.10
2019-05-15T13:47:54.465Z,32.10
2019-05-15T13:50:19.341Z,32.40
2019-05-15T13:52:39.519Z,31.80
2019-05-15T13:55:05.236Z,31.90
2019-05-15T13:57:29.665Z,31.50
2019-05-15T13:59:50.222Z,33.40
2019-05-15T14:02:11.540Z,31.60
2019-05-15T14:04:32.874Z,31.00
2019-05-15T14:06:54.153Z,31.50
2019-05-15T14:09:15.372Z,32.10
2019-05-15T14:11:39.018Z,31.70
2019-05-15T14:14:01.634Z,32.50
2019-05-15T14:16:22.897Z,32.60
2019-05-15T14:18:44.474Z,32.00
2019-05-15T14:21:06.126Z,32.20
2019-05-15T14:23:29.430Z,33.00
2019-05-15T14:25:51.040Z,32.90
2019-05-15T14:28:12.666Z,32.00
2019-05-15T14:30:34.005Z,30.80
2019-05-15T14:32:55.437Z,30.90
2019-05-15T14:35:18.067Z,30.30
2019-05-15T14:37:39.728Z,30.00
2019-05-15T14:40:00.943Z,30.20
2019-05-15T14:42:23.296Z,31.40
2019-05-15T14:44:44.901Z,30.00
2019-05-15T14:47:08.642Z,30.90
2019-05-15T14:49:34.692Z,30.50
2019-05-15T14:52:04.747Z,30.80
2019-05-15T14:54:18.184Z,31.00
2019-05-15T14:56:39.151Z,30.10
2019-05-15T14:59:00.341Z,30.00
2019-05-15T15:01:21.580Z,30.00
2019-05-15T15:03:43.143Z,30.70
2019-05-15T15:06:04.593Z,30.20
2019-05-15T15:08:28.724Z,30.10
2019-05-15T15:10:50.139Z,30.20
2019-05-15T15:13:11.514Z,30.50
2019-05-15T15:15:32.947Z,30.80
2019-05-15T15:17:54.546Z,31.30
2019-05-15T15:20:17.913Z,31.60
2019-05-15T15:22:40.608Z,31.00
2019-05-15T15:25:04.149Z,31.00
2019-05-15T15:27:27.978Z,31.40
2019-05-15T15:29:49.281Z,31.70
2019-05-15T15:32:12.512Z,31.80
2019-05-15T15:34:34.203Z,32.90
2019-05-15T15:36:57.584Z,33.10
2019-05-15T15:39:19.014Z,33.50
2019-05-15T15:41:40.838Z,33.10
2019-05-15T15:44:02.481Z,33.60
2019-05-15T15:46:23.722Z,33.30
2019-05-15T15:48:45.026Z,33.40
2019-05-15T15:51:09.165Z,33.30
2019-05-15T15:53:30.585Z,33.40
2019-05-15T15:55:52.429Z,33.90
2019-05-15T15:58:14.024Z,34.40
2019-05-15T16:00:35.233Z,34.20
2019-05-15T16:02:56.963Z,34.00
2019-05-15T16:05:19.101Z,34.70
2019-05-15T16:07:43.371Z,34.10
2019-05-15T16:10:04.655Z,34.10
2019-05-15T16:12:27.754Z,34.50
2019-05-15T16:14:49.233Z,34.80
2019-05-15T16:17:10.575Z,34.20
2019-05-15T16:19:31.901Z,34.30
2019-05-15T16:21:53.404Z,35.70
2019-05-15T16:24:17.950Z,35.60
2019-05-15T16:26:38.340Z,36.00
2019-05-15T16:29:01.726Z,35.90
2019-05-15T16:31:22.866Z,36.40
2019-05-15T16:33:44.409Z,36.70
2019-05-15T16:36:05.924Z,36.50
2019-05-15T16:38:28.437Z,37.80
2019-05-15T16:40:50.037Z,37.50
2019-05-15T16:43:11.222Z,37.80
2019-05-15T16:45:32.515Z,36.70
2019-05-15T16:47:54.070Z,37.20
2019-05-15T16:50:17.504Z,37.30
2019-05-15T16:52:38.995Z,37.50
2019-05-15T16:55:00.784Z,37.80
2019-05-15T16:57:22.048Z,37.40
2019-05-15T16:59:43.414Z,37.50
2019-05-15T17:02:08.486Z,37.30
2019-05-15T17:04:29.128Z,37.00
2019-05-15T17:06:50.463Z,36.80
2019-05-15T17:09:21.168Z,36.40
2019-05-15T17:11:35.180Z,36.60
2019-05-15T17:13:59.038Z,36.10
2019-05-15T17:16:19.874Z,35.80
2019-05-15T17:18:41.064Z,35.40
2019-05-15T17:21:02.423Z,35.40
2019-05-15T17:23:23.711Z,35.00
2019-05-15T17:25:45.504Z,35.10
2019-05-15T17:28:09.130Z,34.90
2019-05-15T17:30:30.317Z,35.20
2019-05-15T17:32:51.524Z,35.40
2019-05-15T17:35:12.898Z,35.40
2019-05-15T17:37:34.240Z,35.80
2019-05-15T17:39:55.802Z,35.90
2019-05-15T17:42:18.167Z,36.30
2019-05-15T17:44:39.809Z,36.70
2019-05-15T17:47:01.114Z,37.10
2019-05-15T17:49:22.329Z,37.70
2019-05-15T17:51:43.938Z,38.00
2019-05-15T17:54:05.272Z,37.70
2019-05-15T17:56:28.335Z,37.60
2019-05-15T17:58:49.747Z,37.80
2019-05-15T18:01:11.062Z,38.10
2019-05-15T18:03:33.025Z,37.80
2019-05-15T18:06:07.988Z,37.60
2019-05-15T18:08:29.469Z,37.70
2019-05-15T18:10:51.169Z,37.80
2019-05-15T18:13:12.465Z,38.20
2019-05-15T18:15:33.741Z,38.60
2019-05-15T18:17:55.046Z,38.40
2019-05-15T18:20:26.285Z,38.40
2019-05-15T18:22:48.573Z,38.60
2019-05-15T18:25:11.273Z,38.20
2019-05-15T18:27:32.483Z,38.40
2019-05-15T18:29:53.660Z,38.10
2019-05-15T18:32:14.952Z,38.00
2019-05-15T18:34:36.155Z,37.90
2019-05-15T18:36:58.649Z,37.70
2019-05-15T18:39:19.820Z,37.60
2019-05-15T18:41:41.386Z,37.80
2019-05-15T18:44:03.041Z,38.30
2019-05-15T18:46:30.294Z,38.20
2019-05-15T18:48:51.595Z,38.30
2019-05-15T18:51:12.981Z,38.50
2019-05-15T18:53:35.116Z,38.70
2019-05-15T18:55:58.281Z,39.00
2019-05-15T18:58:19.415Z,39.30
2019-05-15T19:00:40.898Z,39.70
2019-05-15T19:03:02.127Z,39.80
2019-05-15T19:05:23.666Z,39.80
2019-05-15T19:07:45.081Z,40.00
2019-05-15T19:10:07.957Z,40.00
2019-05-15T19:12:30.632Z,40.20
2019-05-15T19:14:52.002Z,40.60
2019-05-15T19:17:13.966Z,40.40
2019-05-15T19:19:35.482Z,40.00
2019-05-15T19:21:58.197Z,40.00
2019-05-15T19:24:19.698Z,39.70
2019-05-15T19:26:40.966Z,39.70
2019-05-15T19:29:02.959Z,39.80
2019-05-15T19:31:27.281Z,39.90
2019-05-15T19:33:47.696Z,40.10
2019-05-15T19:36:08.981Z,40.40
2019-05-15T19:38:30.411Z,40.70
2019-05-15T19:40:51.865Z,40.80
2019-05-15T19:43:13.306Z,40.40
2019-05-15T19:45:35.323Z,39.90
2019-05-15T19:47:58.814Z,39.80
2019-05-15T19:50:20.584Z,39.80
2019-05-15T19:53:11.135Z,39.90
2019-05-15T19:55:32.431Z,40.10
2019-05-15T19:57:53.939Z,40.10
2019-05-15T20:00:28.582Z,40.20
2019-05-15T20:02:58.159Z,40.40
2019-05-15T20:05:20.221Z,40.50
2019-05-15T20:07:41.653Z,40.90
2019-05-15T20:10:05.516Z,41.00
2019-05-15T20:12:30.052Z,41.10
2019-05-15T20:14:51.886Z,41.30
2019-05-15T20:17:13.696Z,41.50
2019-05-15T20:19:35.305Z,41.80
2019-05-15T20:21:58.340Z,42.00
2019-05-15T20:24:19.936Z,42.10
2019-05-15T20:26:41.721Z,42.20
2019-05-15T20:29:03.624Z,42.50
2019-05-15T20:31:24.813Z,42.70
2019-05-15T20:33:48.409Z,42.40
2019-05-15T20:36:10.724Z,42.50
2019-05-15T20:38:32.409Z,42.70
2019-05-15T20:40:53.698Z,42.80
2019-05-15T20:43:14.959Z,42.90
2019-05-15T20:45:36.197Z,43.10
2019-05-15T20:47:58.532Z,43.10
2019-05-15T20:50:20.259Z,43.40
2019-05-15T20:52:41.508Z,43.30
2019-05-15T20:55:08.003Z,43.40
2019-05-15T20:57:30.924Z,44.60
2019-05-15T20:59:52.478Z,43.90
2019-05-15T21:02:13.788Z,44.30
2019-05-15T21:04:34.967Z,44.30
2019-05-15T21:06:56.145Z,44.70
2019-05-15T21:09:17.349Z,44.70
2019-05-15T21:11:39.802Z,45.00
2019-05-15T21:14:01.513Z,45.20
2019-05-15T21:16:22.801Z,45.70
2019-05-15T21:18:43.987Z,45.80
2019-05-15T21:21:05.175Z,45.90
2019-05-15T21:23:28.372Z,46.40
2019-05-15T21:25:49.624Z,46.60
2019-05-15T21:28:10.840Z,46.60
2019-05-15T21:30:32.029Z,46.90
2019-05-15T21:32:53.307Z,47.10
2019-05-15T21:35:14.609Z,47.20
2019-05-15T21:37:38.257Z,47.50
2019-05-15T21:39:59.401Z,47.90
2019-05-15T21:42:20.578Z,48.10
2019-05-15T21:44:41.847Z,48.60
2019-05-15T21:47:03.026Z,48.80
2019-05-15T21:49:24.207Z,49.00
2019-05-15T21:51:47.795Z,49.10
2019-05-15T21:54:09.920Z,49.40
2019-05-15T21:56:31.446Z,49.80
2019-05-15T21:58:53.047Z,50.00
2019-05-15T22:01:14.930Z,50.40
2019-05-15T22:03:36.205Z,50.60
2019-05-15T22:05:58.131Z,51.00
2019-05-15T22:08:19.984Z,51.10
2019-05-15T22:10:41.176Z,51.60
2019-05-15T22:13:03.613Z,51.90
2019-05-15T22:15:24.904Z,51.80
2019-05-15T22:17:49.030Z,52.30
2019-05-15T22:20:09.373Z,52.60
2019-05-15T22:22:30.565Z,54.10
2019-05-15T22:24:51.785Z,54.40
2019-05-15T22:27:12.954Z,55.10
2019-05-15T22:29:34.167Z,55.80
2019-05-15T22:31:55.324Z,56.40
2019-05-15T22:34:18.429Z,56.70
2019-05-15T22:36:39.741Z,57.00
2019-05-15T22:39:00.953Z,57.10
2019-05-15T22:41:22.176Z,57.70
2019-05-15T22:43:43.348Z,58.00
2019-05-15T22:46:04.540Z,57.90
2019-05-15T22:48:25.972Z,58.80
2019-05-15T22:50:48.417Z,59.40
2019-05-15T22:53:09.600Z,59.90
2019-05-15T22:55:30.803Z,61.00
2019-05-15T22:57:51.973Z,61.10
2019-05-15T23:00:14.882Z,61.30
2019-05-15T23:02:36.148Z,61.50
2019-05-15T23:04:57.804Z,63.30
2019-05-15T23:07:19.795Z,63.50
2019-05-15T23:09:40.982Z,63.70
2019-05-15T23:12:02.217Z,63.70
2019-05-15T23:14:23.472Z,64.30
2019-05-15T23:16:44.665Z,64.50
2019-05-15T23:19:08.035Z,65.00
2019-05-15T23:21:28.982Z,65.90
2019-05-15T23:23:50.226Z,65.30
2019-05-15T23:26:11.427Z,65.90
2019-05-15T23:28:32.633Z,66.30
2019-05-15T23:30:53.823Z,67.00
2019-05-15T23:33:15.048Z,67.50
2019-05-15T23:35:38.995Z,68.30
2019-05-15T23:37:59.442Z,68.40
2019-05-15T23:40:20.646Z,68.80
2019-05-15T23:42:41.851Z,69.20
2019-05-15T23:45:05.659Z,69.80
2019-05-15T23:47:28.581Z,70.30
2019-05-15T23:49:49.962Z,70.10
2019-05-15T23:52:11.164Z,70.40
2019-05-15T23:54:32.350Z,71.40
2019-05-15T23:56:53.626Z,71.20
2019-05-15T23:59:14.809Z,72.10
